Time;durP1;ratioP1;P1;durP2;ratioP2;P2;SDS_P1;SDS_P2;PMS_P1;PMS_P2;Temp;Humidity;BMP_temperature;BMP_pressure;BME280_temperature;BME280_humidity;BME280_pressure;Samples;Min_cycle;Max_cycle;Signal;HPM_P1;HPM_P2
2022/04/02 00:01:13;;;;;;;14.07;12.23;;;;;;;3.93;86.50;96896.47;4140274;28;20287;-90
2022/04/02 00:03:19;;;;;;;13.50;11.40;;;;;;;3.84;85.32;96897.03;4139415;28;20247;-90
2022/04/02 00:05:25;;;;;;;13.35;11.32;;;;;;;3.75;86.61;96897.59;4157207;28;20209;-90
2022/04/02 00:07:28;;;;;;;14.45;11.73;;;;;;;3.73;86.03;96898.63;4153543;28;20302;-90
2022/04/02 00:09:31;;;;;;;15.02;12.70;;;;;;;3.61;86.47;96899.34;4156395;28;20216;-90
2022/04/02 00:11:35;;;;;;;13.80;11.88;;;;;;;3.42;86.64;96903.94;4155821;28;20232;-90
2022/04/02 00:13:39;;;;;;;15.40;12.00;;;;;;;3.39;86.72;96898.97;4154106;28;20202;-90
2022/04/02 00:15:42;;;;;;;15.00;12.93;;;;;;;3.32;87.15;96894.25;4139940;28;20311;-91
2022/04/02 00:17:45;;;;;;;15.30;12.32;;;;;;;3.21;87.48;96893.25;4140438;28;20750;-91
2022/04/02 00:19:50;;;;;;;14.32;12.10;;;;;;;3.13;88.05;96893.72;4157013;28;20215;-90
2022/04/02 00:21:53;;;;;;;15.20;12.90;;;;;;;3.14;88.37;96900.50;4170737;28;20203;-91
2022/04/02 00:23:57;;;;;;;18.05;12.68;;;;;;;3.15;88.19;96898.78;4136677;28;20301;-90
2022/04/02 00:26:01;;;;;;;17.27;12.82;;;;;;;3.00;88.22;96891.94;4124214;28;20307;-90
2022/04/02 00:28:10;;;;;;;17.45;12.70;;;;;;;2.84;88.54;96894.56;4138029;28;20231;-91
2022/04/02 00:30:13;;;;;;;13.25;11.27;;;;;;;2.81;88.61;96896.47;4124923;28;20702;-91
2022/04/02 00:32:18;;;;;;;18.58;13.40;;;;;;;2.71;89.21;96895.34;4188235;28;20212;-91
2022/04/02 00:34:21;;;;;;;15.65;12.95;;;;;;;2.71;89.61;96900.50;4154898;28;20232;-90
2022/04/02 00:36:26;;;;;;;16.13;13.20;;;;;;;2.62;90.21;96898.44;4159118;28;20202;-91
2022/04/02 00:38:30;;;;;;;17.60;13.40;;;;;;;2.55;90.35;96889.41;4139602;28;20199;-91
2022/04/02 00:40:34;;;;;;;16.35;12.90;;;;;;;2.42;90.40;96893.59;4139524;28;20200;-91
2022/04/02 00:42:37;;;;;;;17.33;12.70;;;;;;;2.38;91.06;96893.84;4123930;28;20188;-90
2022/04/02 00:44:42;;;;;;;15.82;13.13;;;;;;;2.34;90.59;96889.78;4153970;28;20206;-90
2022/04/02 00:46:47;;;;;;;16.92;12.85;;;;;;;2.33;90.88;96892.44;4183040;28;20194;-91
2022/04/02 00:48:51;;;;;;;17.85;13.93;;;;;;;2.28;91.36;96889.31;4125586;28;20204;-91
2022/04/02 00:50:56;;;;;;;15.35;12.70;;;;;;;2.18;91.78;96895.84;4169261;28;20280;-90
2022/04/02 00:53:01;;;;;;;17.33;13.20;;;;;;;2.14;91.82;96890.06;4120406;28;20260;-91
2022/04/02 00:55:05;;;;;;;15.70;12.18;;;;;;;2.15;92.11;96898.59;4152114;28;20351;-91
2022/04/02 00:57:11;;;;;;;18.33;12.57;;;;;;;2.01;92.09;96894.19;4165146;28;20268;-91
2022/04/02 00:59:15;;;;;;;16.10;12.55;;;;;;;1.94;91.81;96898.03;4168632;28;20206;-91
2022/04/02 01:01:18;;;;;;;16.52;12.48;;;;;;;1.94;92.77;96895.47;4138724;28;20203;-91
2022/04/02 01:03:25;;;;;;;19.08;12.98;;;;;;;1.86;92.87;96889.06;4155644;28;20313;-91
2022/04/02 01:05:29;;;;;;;14.73;12.23;;;;;;;1.85;93.62;96884.84;4149999;28;20257;-90
2022/04/02 01:07:32;;;;;;;16.40;11.95;;;;;;;1.88;94.00;96892.41;4152298;28;20203;-91
2022/04/02 01:09:39;;;;;;;19.13;12.90;;;;;;;1.89;94.01;96894.03;4167600;28;20202;-91
2022/04/02 01:11:46;;;;;;;16.67;12.65;;;;;;;1.88;93.26;96897.53;4154416;28;20227;-91
2022/04/02 01:13:52;;;;;;;17.92;11.95;;;;;;;1.86;93.38;96896.78;4136519;28;20199;-91
2022/04/02 01:15:57;;;;;;;15.57;12.55;;;;;;;1.77;94.27;96899.81;4153591;28;20211;-91
2022/04/02 01:18:01;;;;;;;16.92;13.27;;;;;;;1.70;94.32;96903.66;4131051;28;20467;-91
2022/04/02 01:20:12;;;;;;;14.82;12.07;;;;;;;1.67;94.49;96906.38;4138413;28;20243;-91
2022/04/02 01:22:17;;;;;;;15.57;11.57;;;;;;;1.78;96.21;96898.94;4151604;28;20206;-90
2022/04/02 01:24:26;;;;;;;15.60;13.00;;;;;;;1.77;95.93;96912.66;4153928;28;20202;-91
2022/04/02 01:26:32;;;;;;;16.65;12.50;;;;;;;1.75;95.30;96901.66;4122705;28;20214;-91
2022/04/02 01:28:53;;;;;;;18.45;13.30;;;;;;;1.76;94.46;96903.31;4137195;28;20286;-91
2022/04/02 01:31:04;;;;;;;14.43;12.00;;;;;;;1.78;94.07;96916.91;4157146;28;20203;-90
2022/04/02 01:33:08;;;;;;;17.10;12.27;;;;;;;1.77;93.36;96910.09;4138986;28;20354;-91
2022/04/02 01:35:13;;;;;;;14.02;11.35;;;;;;;1.74;93.57;96917.16;4169238;28;20725;-91
2022/04/02 01:37:26;;;;;;;14.73;11.77;;;;;;;1.74;93.92;96923.09;4165455;28;20238;-91
2022/04/02 01:39:35;;;;;;;14.90;12.55;;;;;;;1.76;93.89;96923.03;4155581;28;20214;-91
2022/04/02 01:41:39;;;;;;;14.13;11.73;;;;;;;1.81;93.77;96924.47;4138893;28;20210;-91
2022/04/02 01:43:43;;;;;;;15.98;12.60;;;;;;;1.87;93.76;96918.19;4119267;28;20208;-90
2022/04/02 01:45:46;;;;;;;14.98;11.73;;;;;;;1.85;93.46;96918.25;4167766;28;20202;-91
2022/04/02 01:47:57;;;;;;;15.32;12.55;;;;;;;1.87;92.79;96926.69;4138273;28;20219;-91
2022/04/02 01:50:14;;;;;;;13.75;11.07;;;;;;;1.86;92.54;96930.16;4170182;28;20644;-91
2022/04/02 01:52:22;;;;;;;16.08;10.88;;;;;;;1.84;92.63;96932.00;4150602;28;20253;-91
2022/04/02 01:54:28;;;;;;;13.90;10.35;;;;;;;1.75;92.15;96927.34;4150698;28;20616;-91
2022/04/02 01:56:40;;;;;;;18.15;11.93;;;;;;;1.78;92.81;96927.19;4135023;28;20207;-91
2022/04/02 01:58:45;;;;;;;14.55;11.18;;;;;;;1.78;93.42;96940.03;4152310;28;20578;-91
2022/04/02 02:00:53;;;;;;;16.20;10.30;;;;;;;1.86;93.69;96934.50;4153857;28;20206;-90
2022/04/02 02:02:57;;;;;;;13.98;10.80;;;;;;;1.82;93.17;96935.56;4153259;28;20801;-91
2022/04/02 02:05:01;;;;;;;16.67;12.05;;;;;;;1.80;93.27;96951.06;4141453;28;20208;-91
2022/04/02 02:07:06;;;;;;;15.45;11.93;;;;;;;1.80;93.09;96935.63;4155530;28;20213;-91
2022/04/02 02:09:13;;;;;;;15.45;11.55;;;;;;;1.89;93.10;96940.28;4155035;28;20210;-90
2022/04/02 02:11:42;;;;;;;16.98;11.32;;;;;;;1.87;93.09;96942.94;4167807;28;20199;-91
2022/04/02 02:13:58;;;;;;;12.90;10.90;;;;;;;1.73;94.02;96939.47;4140329;28;20218;-91
2022/04/02 02:16:02;;;;;;;12.77;10.40;;;;;;;1.70;94.17;96938.75;4151663;28;20208;-91
2022/04/02 02:18:09;;;;;;;17.55;11.30;;;;;;;1.79;94.36;96946.00;4150765;28;20278;-90
2022/04/02 02:20:14;;;;;;;13.98;10.23;;;;;;;1.78;94.13;96952.06;4124458;28;20212;-91
2022/04/02 02:22:17;;;;;;;13.15;10.57;;;;;;;1.71;93.07;96954.09;4158288;28;20210;-91
2022/04/02 02:24:21;;;;;;;15.73;10.05;;;;;;;1.69;93.30;96955.94;4154607;28;20236;-91
2022/04/02 02:26:24;;;;;;;15.45;10.65;;;;;;;1.61;92.94;96959.78;4140723;28;20268;-90
2022/04/02 02:28:30;;;;;;;14.63;10.90;;;;;;;1.64;93.94;96963.06;4143466;28;20219;-91
2022/04/02 02:30:34;;;;;;;15.05;10.98;;;;;;;1.62;92.99;96972.56;4125585;28;20284;-91
2022/04/02 02:32:41;;;;;;;13.90;10.65;;;;;;;1.63;93.26;96974.22;4157482;28;20284;-91
2022/04/02 02:37:09;;;;;;;17.55;10.77;;;;;;;1.58;93.67;96971.06;4174076;28;20248;-90
2022/04/02 02:39:20;;;;;;;13.35;10.18;;;;;;;1.46;93.84;96969.13;4137425;28;20215;-90
2022/04/02 02:41:38;;;;;;;13.02;10.50;;;;;;;1.42;94.55;96974.50;4121070;28;20239;-90
2022/04/02 02:43:46;;;;;;;14.60;10.85;;;;;;;1.43;95.61;96965.91;4155703;28;20199;-91
2022/04/02 02:46:02;;;;;;;12.07;9.50;;;;;;;1.32;96.24;96972.47;4156203;28;20207;-90
2022/04/02 02:48:07;;;;;;;13.07;10.15;;;;;;;1.33;96.76;96963.88;4174245;28;20209;-91
2022/04/02 02:50:20;;;;;;;16.90;9.48;;;;;;;1.34;95.33;96970.63;4155776;28;20217;-90
2022/04/02 02:52:31;;;;;;;11.80;8.75;;;;;;;1.36;94.39;96973.97;4156277;28;20211;-90
2022/04/02 02:54:34;;;;;;;15.00;9.52;;;;;;;1.24;100.00;96964.31;4142702;28;20204;-90
2022/04/02 02:56:41;;;;;;;12.82;9.35;;;;;;;1.21;100.00;96960.16;4172883;28;20214;-91
2022/04/02 02:58:46;;;;;;;11.48;8.30;;;;;;;1.18;100.00;96962.06;4141262;28;20207;-91
2022/04/02 03:00:50;;;;;;;15.23;9.43;;;;;;;1.07;100.00;96956.66;4169693;28;20294;-90
2022/04/02 03:03:00;;;;;;;11.45;8.57;;;;;;;1.02;100.00;96963.72;4155440;28;20300;-91
2022/04/02 03:05:11;;;;;;;14.20;9.82;;;;;;;1.06;100.00;96960.94;4155299;28;20200;-91
2022/04/02 03:07:15;;;;;;;12.02;9.00;;;;;;;1.06;100.00;96955.78;4126539;28;20215;-91
2022/04/02 03:09:19;;;;;;;13.88;8.70;;;;;;;1.04;100.00;96961.94;4126190;28;20536;-90
2022/04/02 03:11:22;;;;;;;12.23;8.73;;;;;;;1.10;100.00;96969.31;4155668;28;20635;-91
2022/04/02 03:13:29;;;;;;;14.02;8.60;;;;;;;1.01;100.00;96969.78;4158713;28;20218;-91
2022/04/02 03:15:42;;;;;;;14.18;9.45;;;;;;;0.97;100.00;96968.25;4116099;28;21064;-90
2022/04/02 03:17:46;;;;;;;14.32;9.15;;;;;;;0.97;100.00;96958.00;4145345;28;20214;-90
2022/04/02 03:19:49;;;;;;;12.63;9.43;;;;;;;0.98;100.00;96967.34;4141730;28;20202;-90
2022/04/02 03:21:53;;;;;;;15.40;9.18;;;;;;;1.07;100.00;96974.59;4158092;28;20217;-90
2022/04/02 03:23:57;;;;;;;12.25;9.30;;;;;;;1.04;100.00;96965.31;4171870;28;20215;-90
2022/04/02 03:26:04;;;;;;;14.98;9.30;;;;;;;1.07;100.00;96961.78;4155086;28;20210;-90
2022/04/02 03:28:14;;;;;;;12.88;9.10;;;;;;;1.09;100.00;96965.09;4155540;28;20701;-91
2022/04/02 03:30:20;;;;;;;14.80;8.75;;;;;;;1.13;100.00;96966.59;4142552;28;20206;-90
2022/04/02 03:32:26;;;;;;;10.35;8.32;;;;;;;1.11;98.16;96968.41;4139291;28;20199;-89
2022/04/02 03:34:30;;;;;;;11.25;8.38;;;;;;;1.15;97.42;96970.75;4161170;28;20235;-90
2022/04/02 03:36:34;;;;;;;14.98;8.95;;;;;;;1.21;97.05;96967.88;4158203;28;20275;-89
2022/04/02 03:38:41;;;;;;;17.08;8.57;;;;;;;1.20;96.57;96967.94;4171345;28;20251;-89
2022/04/02 03:40:50;;;;;;;11.25;7.75;;;;;;;1.22;97.33;96966.13;4138169;28;20645;-91
2022/04/02 03:42:55;;;;;;;11.75;8.15;;;;;;;1.29;98.03;96960.59;4126409;28;20319;-90
2022/04/02 03:45:07;;;;;;;12.07;8.70;;;;;;;1.33;97.27;96974.97;4157338;28;20283;-90
2022/04/02 03:47:11;;;;;;;13.50;8.60;;;;;;;1.37;96.84;96973.91;4139095;28;20723;-90
2022/04/02 03:49:23;;;;;;;16.73;9.30;;;;;;;1.31;96.63;96981.06;4171033;28;20310;-90
2022/04/02 03:51:27;;;;;;;15.43;9.48;;;;;;;1.34;97.11;96979.19;4176046;28;20203;-90
2022/04/02 03:53:30;;;;;;;16.95;11.70;;;;;;;1.31;96.84;96975.94;4159690;28;20243;-90
2022/04/02 03:55:38;;;;;;;10.48;8.00;;;;;;;1.24;97.42;96979.72;4156356;28;20201;-91
2022/04/02 03:57:55;;;;;;;11.35;8.52;;;;;;;1.22;98.08;96984.09;4174116;28;20639;-90
2022/04/02 04:00:01;;;;;;;14.20;9.75;;;;;;;1.15;98.26;96975.06;4141644;28;20570;-90
2022/04/02 04:02:15;;;;;;;14.75;9.10;;;;;;;1.16;98.43;96989.56;4141905;28;20258;-90
2022/04/02 04:04:22;;;;;;;13.38;9.88;;;;;;;1.19;98.55;96994.50;4158505;28;20213;-90
2022/04/02 04:06:26;;;;;;;12.10;9.00;;;;;;;1.23;98.82;96993.47;4161241;28;20255;-90
2022/04/02 04:08:29;;;;;;;13.52;9.23;;;;;;;1.22;98.63;97005.47;4154631;28;20215;-91
2022/04/02 04:10:33;;;;;;;12.85;9.95;;;;;;;1.24;98.78;97001.09;4173865;28;20237;-91
2022/04/02 04:12:37;;;;;;;11.10;9.05;;;;;;;1.27;98.88;96997.53;4138270;28;20587;-90
2022/04/02 04:14:45;;;;;;;10.73;7.88;;;;;;;1.25;98.10;97000.19;4142020;28;20313;-90
2022/04/02 04:16:49;;;;;;;10.65;8.77;;;;;;;1.31;98.11;97011.88;4136684;28;20196;-90
2022/04/02 04:18:53;;;;;;;12.30;10.10;;;;;;;1.33;97.73;97003.19;4153841;28;20199;-90
2022/04/02 04:20:58;;;;;;;10.38;8.10;;;;;;;1.39;97.86;97012.34;4153244;28;20214;-90
2022/04/02 04:23:05;;;;;;;12.30;9.10;;;;;;;1.36;97.97;97015.06;4170205;28;20321;-90
2022/04/02 04:25:11;;;;;;;11.50;8.88;;;;;;;1.38;97.30;97019.19;4158303;28;20666;-90
2022/04/02 04:27:19;;;;;;;13.07;9.05;;;;;;;1.38;97.59;97018.38;4154760;28;20214;-90
2022/04/02 04:29:23;;;;;;;12.95;9.43;;;;;;;1.43;97.51;97023.22;4172710;28;20206;-90
2022/04/02 04:31:27;;;;;;;13.00;9.00;;;;;;;1.35;98.38;97033.94;4140274;28;21334;-90
2022/04/02 04:33:30;;;;;;;12.05;8.77;;;;;;;1.24;99.34;97015.66;4154914;28;20758;-90
2022/04/02 04:35:35;;;;;;;13.02;9.40;;;;;;;1.19;99.83;97022.75;4152738;28;20962;-90
2022/04/02 04:37:40;;;;;;;12.40;9.32;;;;;;;1.23;99.79;97034.53;4153654;28;20297;-90
2022/04/02 04:39:54;;;;;;;11.48;9.05;;;;;;;1.21;100.00;97028.66;4117846;28;20611;-90
2022/04/02 04:41:57;;;;;;;13.55;9.63;;;;;;;1.23;100.00;97030.22;4121241;28;20692;-91
2022/04/02 04:44:06;;;;;;;12.25;9.00;;;;;;;1.23;100.00;97034.53;4124466;28;20219;-90
2022/04/02 04:46:13;;;;;;;11.40;8.75;;;;;;;1.25;100.00;97042.97;4153323;28;20294;-90
2022/04/02 04:48:16;;;;;;;15.48;9.05;;;;;;;1.23;100.00;97043.06;4154042;28;20203;-90
2022/04/02 04:50:27;;;;;;;11.98;9.35;;;;;;;1.22;99.59;97048.25;4124024;28;20245;-90
2022/04/02 04:52:35;;;;;;;11.88;9.10;;;;;;;1.26;99.11;97049.78;4185551;28;20212;-91
2022/04/02 04:54:42;;;;;;;11.15;8.60;;;;;;;1.38;98.35;97044.88;4151714;28;20318;-90
2022/04/02 04:56:51;;;;;;;11.23;8.50;;;;;;;1.43;98.49;97050.63;4139482;28;20199;-90
2022/04/02 04:58:58;;;;;;;11.10;8.88;;;;;;;1.50;98.22;97055.38;4170085;28;20211;-90
2022/04/02 05:01:05;;;;;;;10.95;9.05;;;;;;;1.50;97.48;97052.81;4155541;28;20207;-90
2022/04/02 05:03:10;;;;;;;12.02;9.30;;;;;;;1.52;97.38;97056.13;4126219;28;20200;-90
2022/04/02 05:05:20;;;;;;;11.15;8.30;;;;;;;1.54;96.61;97054.31;4159043;28;20214;-90
2022/04/02 05:07:41;;;;;;;10.82;8.75;;;;;;;1.52;96.58;97063.84;4142863;28;20785;-91
2022/04/02 05:09:48;;;;;;;9.98;8.55;;;;;;;1.49;97.25;97064.00;4140154;28;20596;-90
2022/04/02 05:11:53;;;;;;;9.75;8.20;;;;;;;1.54;96.55;97069.72;4141729;28;20303;-90
2022/04/02 05:13:57;;;;;;;13.45;9.45;;;;;;;1.52;97.31;97066.41;4157843;28;20207;-90
2022/04/02 05:16:02;;;;;;;13.50;9.90;;;;;;;1.55;96.69;97071.41;4159169;28;20207;-90
2022/04/02 05:18:06;;;;;;;11.88;8.25;;;;;;;1.59;96.47;97077.19;4156794;28;20620;-90
2022/04/02 05:20:11;;;;;;;10.48;8.15;;;;;;;1.59;96.19;97079.75;4157801;28;20207;-90
2022/04/02 05:22:16;;;;;;;10.57;8.40;;;;;;;1.58;96.99;97076.38;4136134;28;20215;-90
2022/04/02 05:24:25;;;;;;;10.50;8.23;;;;;;;1.69;96.47;97079.22;4140315;28;20210;-90
2022/04/02 05:26:34;;;;;;;10.60;9.52;;;;;;;1.74;96.76;97079.81;4159126;28;20198;-90
2022/04/02 05:28:42;;;;;;;13.50;9.25;;;;;;;1.79;97.07;97083.03;4157778;28;20199;-90
2022/04/02 05:30:46;;;;;;;10.05;8.52;;;;;;;1.77;95.72;97084.81;4122387;28;20244;-90
2022/04/02 05:32:50;;;;;;;11.88;8.65;;;;;;;1.78;95.64;97089.06;4156014;28;20203;-90
2022/04/02 05:34:53;;;;;;;10.45;8.50;;;;;;;1.83;95.74;97088.81;4155698;28;20282;-90
2022/04/02 05:36:57;;;;;;;13.50;9.48;;;;;;;1.87;96.15;97083.44;4125845;28;20294;-90
2022/04/02 05:39:01;;;;;;;12.60;9.77;;;;;;;1.95;95.50;97096.72;4125194;28;20212;-90
2022/04/02 05:41:05;;;;;;;10.25;8.00;;;;;;;1.98;94.80;97094.84;4150091;28;20639;-90
2022/04/02 05:43:10;;;;;;;13.57;9.15;;;;;;;1.98;94.56;97091.44;4156258;28;20207;-90
2022/04/02 05:45:15;;;;;;;18.60;9.75;;;;;;;2.00;94.81;97098.19;4157670;28;20207;-90
2022/04/02 05:47:18;;;;;;;15.98;10.20;;;;;;;1.97;94.27;97092.34;4137423;28;20208;-90
2022/04/02 05:49:22;;;;;;;9.90;8.05;;;;;;;1.88;93.44;97097.97;4120886;28;20200;-90
2022/04/02 05:51:25;;;;;;;11.35;8.10;;;;;;;1.90;94.35;97096.16;4173246;28;20221;-90
2022/04/02 05:53:28;;;;;;;10.32;7.53;;;;;;;1.80;93.85;97100.06;4156763;28;20202;-90
2022/04/02 05:55:32;;;;;;;11.18;8.52;;;;;;;1.76;94.05;97101.16;4175556;28;20268;-90
2022/04/02 05:57:36;;;;;;;10.73;7.90;;;;;;;1.67;93.26;97106.75;4131584;28;20210;-90
2022/04/02 05:59:41;;;;;;;11.15;8.27;;;;;;;1.64;94.16;97104.34;4127283;28;20240;-90
2022/04/02 06:01:48;;;;;;;7.60;6.72;;;;;;;1.62;93.35;97105.31;4159572;28;20608;-90
2022/04/02 06:03:51;;;;;;;8.45;6.85;;;;;;;1.65;93.89;97116.25;4158508;28;20207;-91
2022/04/02 06:05:55;;;;;;;10.20;8.05;;;;;;;1.66;94.54;97111.97;4192171;28;20206;-90
2022/04/02 06:08:01;;;;;;;9.20;7.68;;;;;;;1.60;93.30;97114.81;4159414;28;20738;-90
2022/04/02 06:10:06;;;;;;;11.77;7.53;;;;;;;1.49;93.30;97120.50;4126462;28;20300;-90
2022/04/02 06:12:10;;;;;;;9.45;7.85;;;;;;;1.48;94.08;97118.81;4172916;28;21174;-90
2022/04/02 06:14:14;;;;;;;12.65;8.10;;;;;;;1.46;94.59;97124.94;4174976;28;20281;-90
2022/04/02 06:16:23;;;;;;;8.52;7.05;;;;;;;1.48;94.44;97121.38;4162970;28;20244;-90
2022/04/02 06:18:26;;;;;;;10.45;7.65;;;;;;;1.49;94.42;97129.94;4143891;28;20205;-90
2022/04/02 06:20:32;;;;;;;9.80;7.05;;;;;;;1.43;94.80;97136.19;4139973;28;20813;-89
2022/04/02 06:22:36;;;;;;;10.35;8.00;;;;;;;1.38;94.70;97126.22;4141774;28;20196;-90
2022/04/02 06:24:40;;;;;;;20.85;12.15;;;;;;;1.38;94.98;97136.47;4128752;28;20243;-89
2022/04/02 06:26:43;;;;;;;20.85;12.73;;;;;;;1.40;95.52;97140.66;4159629;28;20609;-89
2022/04/02 06:28:48;;;;;;;21.92;11.65;;;;;;;1.42;96.52;97146.53;4126843;28;20198;-90
2022/04/02 06:30:51;;;;;;;11.20;8.30;;;;;;;1.43;95.51;97145.66;4160450;28;20218;-89
2022/04/02 06:33:00;;;;;;;8.95;6.93;;;;;;;1.38;97.66;97142.44;4159903;28;20229;-90
2022/04/02 06:35:06;;;;;;;10.30;8.98;;;;;;;1.40;98.43;97151.75;4174258;28;20299;-89
2022/04/02 06:37:11;;;;;;;11.65;9.15;;;;;;;1.45;96.10;97156.66;4158004;28;20290;-90
2022/04/02 06:39:16;;;;;;;11.00;8.88;;;;;;;1.31;97.05;97160.78;4174517;28;20213;-90
2022/04/02 06:41:19;;;;;;;10.45;8.25;;;;;;;1.34;97.42;97156.34;4156394;28;20296;-89
2022/04/02 06:43:22;;;;;;;9.13;7.85;;;;;;;1.42;98.42;97159.38;4153046;28;20213;-87
2022/04/02 06:45:48;;;;;;;12.10;7.38;;;;;;;1.43;96.66;97168.75;4153342;28;20280;-86
2022/04/02 06:47:51;;;;;;;9.05;7.90;;;;;;;1.43;96.52;97159.31;4142192;28;20741;-87
2022/04/02 06:49:57;;;;;;;12.00;8.00;;;;;;;1.40;95.98;97169.72;4173800;28;20819;-88
2022/04/02 06:52:00;;;;;;;9.60;8.30;;;;;;;1.36;95.66;97164.81;4173115;28;20712;-87
2022/04/02 06:54:05;;;;;;;10.75;7.80;;;;;;;1.34;100.00;97161.47;4141317;28;20259;-87
2022/04/02 06:56:08;;;;;;;10.10;7.75;;;;;;;1.37;100.00;97161.34;4154822;28;20223;-87
2022/04/02 06:58:22;;;;;;;12.95;8.05;;;;;;;1.43;100.00;97167.00;4157224;28;20207;-87
2022/04/02 07:00:26;;;;;;;9.88;7.50;;;;;;;1.36;97.66;97179.38;4186728;28;20289;-87
2022/04/02 07:02:31;;;;;;;12.25;9.02;;;;;;;1.28;98.59;97168.63;4153822;28;20223;-87
2022/04/02 07:04:35;;;;;;;11.63;8.07;;;;;;;1.26;97.98;97184.09;4156590;28;20233;-87
2022/04/02 07:06:44;;;;;;;11.15;8.65;;;;;;;1.27;98.32;97174.69;4170972;28;20207;-87
2022/04/02 07:08:47;;;;;;;12.48;9.15;;;;;;;1.33;97.76;97188.06;4142082;28;20604;-87
2022/04/02 07:10:50;;;;;;;11.02;8.23;;;;;;;1.44;97.12;97188.38;4151691;28;21122;-86
2022/04/02 07:12:54;;;;;;;11.25;8.18;;;;;;;1.56;97.31;97183.47;4151940;28;20206;-84
2022/04/02 07:14:57;;;;;;;10.68;8.30;;;;;;;1.52;95.05;97187.13;4151771;28;20204;-85
2022/04/02 07:17:00;;;;;;;15.43;8.73;;;;;;;1.62;95.67;97192.63;4170884;28;20660;-84
2022/04/02 07:19:04;;;;;;;11.98;9.95;;;;;;;1.65;95.05;97201.03;4171961;28;20214;-84
2022/04/02 07:21:08;;;;;;;11.35;8.23;;;;;;;1.78;94.20;97207.25;4152934;28;20203;-86
2022/04/02 07:23:12;;;;;;;11.57;8.50;;;;;;;1.87;92.99;97200.84;4153036;28;20740;-86
2022/04/02 07:25:18;;;;;;;7.90;7.10;;;;;;;1.90;91.18;97201.50;4167569;28;20226;-85
2022/04/02 07:27:23;;;;;;;11.35;7.65;;;;;;;1.98;91.36;97207.09;4136418;28;20208;-85
2022/04/02 07:29:27;;;;;;;8.57;7.45;;;;;;;2.13;91.55;97214.06;4121152;28;20239;-85
2022/04/02 07:31:31;;;;;;;10.50;7.57;;;;;;;2.25;90.68;97208.31;4135722;28;20278;-86
2022/04/02 07:33:34;;;;;;;8.27;6.75;;;;;;;2.13;89.56;97226.91;4154246;28;20296;-86
2022/04/02 07:35:41;;;;;;;8.15;7.32;;;;;;;2.06;90.86;97228.13;4138449;28;20254;-85
2022/04/02 07:37:54;;;;;;;10.15;6.20;;;;;;;1.98;89.81;97228.47;4137954;28;20212;-88
2022/04/02 07:40:05;;;;;;;9.85;7.82;;;;;;;2.00;90.96;97233.56;4138130;28;20669;-87
2022/04/02 07:42:11;;;;;;;12.70;8.10;;;;;;;2.03;90.33;97236.81;4171240;28;20676;-89
2022/04/02 07:44:22;;;;;;;10.52;7.95;;;;;;;2.04;89.23;97241.03;4134485;28;20216;-90
2022/04/02 07:46:38;;;;;;;10.05;8.45;;;;;;;1.99;89.97;97237.06;4138526;28;20204;-94
2022/04/02 07:48:42;;;;;;;10.23;7.03;;;;;;;1.93;89.72;97253.59;4157640;28;20329;-92
2022/04/02 07:50:48;;;;;;;24.92;13.95;;;;;;;2.08;93.78;97247.72;4128077;28;20200;-91
2022/04/02 07:55:13;;;;;;;14.27;9.48;;;;;;;2.58;93.24;97257.13;4143213;28;20274;-94
2022/04/02 07:57:19;;;;;;;15.75;10.35;;;;;;;2.67;91.17;97261.81;4146301;28;20221;-94
2022/04/02 07:59:33;;;;;;;9.35;6.55;;;;;;;2.63;88.76;97256.91;4162347;28;20615;-96
2022/04/02 08:01:40;;;;;;;7.70;6.80;;;;;;;2.73;89.42;97258.94;4142611;28;20215;-89
2022/04/02 08:03:46;;;;;;;11.23;7.07;;;;;;;2.87;88.16;97271.91;4156957;28;20257;-94
2022/04/02 08:05:55;;;;;;;13.43;7.50;;;;;;;2.78;88.28;97285.25;4144164;28;20220;-89
2022/04/02 08:07:59;;;;;;;5.75;5.15;;;;;;;2.73;86.71;97270.97;4137604;28;20282;-90
2022/04/02 08:10:14;;;;;;;8.10;6.43;;;;;;;2.78;87.35;97277.53;4151610;28;20450;-88
2022/04/02 08:12:22;;;;;;;20.45;12.07;;;;;;;2.82;86.91;97277.31;4149806;28;20209;-90
2022/04/02 08:14:25;;;;;;;8.10;6.53;;;;;;;2.85;86.17;97278.91;4151100;28;20207;-88
2022/04/02 08:16:32;;;;;;;6.35;5.30;;;;;;;2.89;86.64;97283.00;4135604;28;20751;-92
2022/04/02 08:18:36;;;;;;;8.25;6.22;;;;;;;2.93;85.08;97292.22;4169072;28;20205;-92
2022/04/02 08:20:39;;;;;;;7.43;5.70;;;;;;;2.63;87.08;97305.78;4153595;28;20207;-92
2022/04/02 08:22:43;;;;;;;14.07;11.10;;;;;;;2.49;88.78;97303.91;4135089;28;20226;-92
2022/04/02 08:24:47;;;;;;;10.20;7.80;;;;;;;2.64;91.23;97307.47;4134784;28;20343;-91
2022/04/02 08:27:00;;;;;;;9.90;6.80;;;;;;;2.76;89.38;97297.38;4152526;28;20261;-92
2022/04/02 08:29:23;;;;;;;15.77;10.25;;;;;;;2.75;86.36;97318.88;4151116;28;20652;-92
2022/04/02 08:31:31;;;;;;;11.05;7.80;;;;;;;2.81;86.70;97316.00;4148486;28;20268;-92
2022/04/02 08:33:43;;;;;;;9.65;7.78;;;;;;;2.61;86.88;97317.91;4166805;28;20333;-92
2022/04/02 08:35:50;;;;;;;9.82;7.85;;;;;;;2.68;89.43;97322.69;4137676;28;20552;-93
2022/04/02 08:38:03;;;;;;;8.70;7.63;;;;;;;2.78;87.10;97328.19;4137703;28;20253;-93
2022/04/02 08:40:16;;;;;;;20.73;13.82;;;;;;;2.68;85.97;97332.97;4137985;28;20242;-93
2022/04/02 08:42:55;;;;;;;27.40;15.20;;;;;;;2.64;85.86;97330.63;4154197;28;20698;-92
2022/04/02 08:45:10;;;;;;;32.53;17.60;;;;;;;2.66;86.18;97341.66;4113184;28;20306;-92
2022/04/02 08:47:24;;;;;;;12.13;8.85;;;;;;;2.67;85.12;97344.16;4121846;28;20209;-92
2022/04/02 08:49:39;;;;;;;21.02;13.82;;;;;;;2.80;87.29;97342.66;4154953;28;20321;-93
2022/04/02 08:51:46;;;;;;;17.00;10.10;;;;;;;2.83;84.33;97345.09;4139852;28;20269;-93
2022/04/02 08:54:04;;;;;;;46.80;21.42;;;;;;;2.67;83.90;97344.16;4135960;28;20637;-92
2022/04/02 08:56:08;;;;;;;20.77;13.77;;;;;;;2.76;84.90;97348.84;4151409;28;20194;-92
2022/04/02 08:58:23;;;;;;;10.30;8.52;;;;;;;2.83;84.47;97347.66;4150497;28;20207;-93
2022/04/02 09:00:31;;;;;;;13.18;9.20;;;;;;;2.80;84.19;97361.50;4139495;28;20583;-92
2022/04/02 09:05:55;;;;;;;15.05;9.80;;;;;;;2.88;85.47;97361.13;4144439;28;20214;-94
2022/04/02 09:08:30;;;;;;;11.52;8.63;;;;;;;2.58;83.90;97372.09;4142191;28;20207;-94
2022/04/02 09:10:59;;;;;;;18.33;10.43;;;;;;;2.48;85.43;97369.16;4126487;28;20315;-94
2022/04/02 09:13:38;;;;;;;19.42;13.23;;;;;;;2.70;85.66;97374.06;4124075;28;20700;-96
2022/04/02 09:15:54;;;;;;;66.70;31.02;;;;;;;2.69;83.69;97373.25;4112153;28;20211;-93
2022/04/02 09:18:05;;;;;;;12.20;9.25;;;;;;;2.78;83.41;97380.50;4159315;28;20264;-94
2022/04/02 09:20:39;;;;;;;44.17;24.05;;;;;;;2.73;82.35;97385.03;4136869;28;20956;-94
2022/04/02 09:23:06;;;;;;;26.27;15.80;;;;;;;2.76;84.28;97384.06;4156804;28;20210;-94
2022/04/02 09:26:00;;;;;;;22.98;15.52;;;;;;;2.78;84.03;97370.19;4165206;28;20218;-94
2022/04/02 09:28:32;;;;;;;14.13;10.50;;;;;;;2.68;84.10;97386.19;4152340;28;20213;-92
2022/04/02 09:31:12;;;;;;;16.85;12.50;;;;;;;2.52;84.09;97391.22;4128048;28;20204;-92
2022/04/02 09:33:39;;;;;;;13.02;11.63;;;;;;;2.65;85.29;97392.31;4119522;28;20216;-95
2022/04/02 09:36:10;;;;;;;25.48;19.92;;;;;;;2.70;85.18;97398.06;4143410;28;20236;-93
2022/04/02 09:38:39;;;;;;;18.42;12.65;;;;;;;2.38;86.03;97400.53;4134731;28;20224;-93
2022/04/02 09:40:49;;;;;;;14.50;11.02;;;;;;;2.44;86.60;97400.25;4144331;28;20271;-93
2022/04/02 09:43:01;;;;;;;10.40;9.15;;;;;;;2.41;85.83;97388.34;4164591;28;20274;-94
2022/04/02 09:45:09;;;;;;;15.02;13.13;;;;;;;2.62;86.57;97407.06;4144312;28;20653;-93
2022/04/02 09:47:19;;;;;;;13.55;10.43;;;;;;;2.63;86.14;97401.00;4141246;28;20603;-90
2022/04/02 09:49:32;;;;;;;12.30;10.40;;;;;;;2.79;86.50;97405.34;4144111;28;20206;-90
2022/04/02 09:51:36;;;;;;;11.13;9.73;;;;;;;2.74;85.18;97409.88;4129832;28;20207;-91
2022/04/02 09:53:43;;;;;;;11.60;7.60;;;;;;;2.64;82.58;97411.22;4142525;28;20218;-93
2022/04/02 09:55:52;;;;;;;10.20;8.05;;;;;;;2.65;85.72;97412.06;4142689;28;20663;-92
2022/04/02 09:58:25;;;;;;;12.30;8.13;;;;;;;2.89;84.53;97416.84;4124619;28;20227;-91
2022/04/02 10:00:35;;;;;;;12.68;8.75;;;;;;;3.15;84.09;97419.78;4104045;28;20303;-91
2022/04/02 10:02:49;;;;;;;10.23;8.55;;;;;;;3.24;82.59;97408.19;4144532;28;20298;-91
2022/04/02 10:04:55;;;;;;;10.32;8.60;;;;;;;3.27;82.89;97423.50;4142629;28;20231;-91
2022/04/02 10:07:12;;;;;;;10.15;8.00;;;;;;;3.39;81.92;97427.09;4123664;28;20232;-91